Time;durP1;ratioP1;P1;durP2;ratioP2;P2;SDS_P1;SDS_P2;PMS_P1;PMS_P2;Temp;Humidity;BMP_temperature;BMP_pressure;BME280_temperature;BME280_humidity;BME280_pressure;Samples;Min_cycle;Max_cycle;Signal;HPM_P1;HPM_P2
2023/07/28 00:01:25;0.00;0.00;0.62;0.00;0.00;0.62;2.87;2.20;;;28.40;29.00;;;;;;2248389;61;20936;-60
2023/07/28 00:04:10;0.00;0.00;0.62;0.00;0.00;0.62;3.67;2.30;;;28.40;29.00;;;;;;2248828;61;20437;-60
2023/07/28 00:06:55;0.00;0.00;0.62;0.00;0.00;0.62;3.77;2.77;;;28.40;29.00;;;;;;2252631;61;20397;-60
2023/07/28 00:09:39;0.00;0.00;0.62;0.00;0.00;0.62;2.97;2.50;;;28.40;29.00;;;;;;2251235;61;20363;-59
2023/07/28 00:12:25;0.00;0.00;0.62;0.00;0.00;0.62;2.93;2.20;;;28.40;29.00;;;;;;2252076;61;20398;-59
2023/07/28 00:15:10;0.00;0.00;0.62;0.00;0.00;0.62;3.30;2.60;;;28.40;29.00;;;;;;2252333;61;20363;-61
2023/07/28 00:17:56;0.00;0.00;0.62;0.00;0.00;0.62;4.07;2.83;;;28.40;29.00;;;;;;2252057;61;20414;-63
2023/07/28 00:20:41;0.00;0.00;0.62;0.00;0.00;0.62;3.33;3.00;;;28.40;29.00;;;;;;2252374;61;20363;-58
2023/07/28 00:23:25;0.00;0.00;0.62;0.00;0.00;0.62;3.57;2.50;;;28.40;29.10;;;;;;2252477;61;20394;-58
2023/07/28 00:26:10;0.00;0.00;0.62;0.00;0.00;0.62;3.10;2.30;;;28.40;29.00;;;;;;2251968;61;20363;-60
2023/07/28 00:28:57;0.00;0.00;0.62;0.00;0.00;0.62;2.90;2.30;;;28.40;29.00;;;;;;2251980;61;20466;-61
2023/07/28 00:31:42;0.00;0.00;0.62;0.00;0.00;0.62;2.90;2.50;;;28.40;29.00;;;;;;2252340;61;20367;-57
2023/07/28 00:34:27;0.00;0.00;0.62;0.00;0.00;0.62;2.70;2.10;;;28.40;29.00;;;;;;2248255;61;20459;-56
2023/07/28 00:37:12;0.00;0.00;0.62;0.00;0.00;0.62;4.10;2.13;;;28.40;29.10;;;;;;2250609;61;20779;-61
2023/07/28 00:39:56;0.00;0.00;0.62;0.00;0.00;0.62;2.50;1.90;;;28.40;29.10;;;;;;2251664;61;20568;-60
2023/07/28 00:42:41;0.00;0.00;0.62;0.00;0.00;0.62;2.30;1.80;;;28.40;29.10;;;;;;2248916;61;20414;-60
2023/07/28 00:45:30;0.00;0.00;0.62;0.00;0.00;0.62;2.50;1.83;;;28.40;29.10;;;;;;2251894;61;20370;-56
2023/07/28 00:48:17;0.00;0.00;0.62;0.00;0.00;0.62;2.87;2.20;;;28.40;29.10;;;;;;2248625;61;20792;-60
2023/07/28 00:51:03;0.00;0.00;0.62;0.00;0.00;0.62;2.80;2.17;;;28.40;29.10;;;;;;2249109;61;20957;-60
2023/07/28 00:53:48;0.00;0.00;0.62;0.00;0.00;0.62;3.07;2.60;;;28.40;29.10;;;;;;2252074;61;20367;-61
2023/07/28 00:56:33;0.00;0.00;0.62;0.00;0.00;0.62;2.40;2.03;;;28.40;29.10;;;;;;2251407;61;20370;-61
2023/07/28 00:59:20;0.00;0.00;0.62;0.00;0.00;0.62;2.73;1.93;;;28.40;29.10;;;;;;2251741;61;20402;-58
2023/07/28 01:02:06;0.00;0.00;0.62;0.00;0.00;0.62;2.63;1.80;;;28.40;29.10;;;;;;2252311;61;20507;-57
2023/07/28 01:04:52;0.00;0.00;0.62;0.00;0.00;0.62;2.17;1.70;;;28.40;29.20;;;;;;2248108;61;20988;-62
2023/07/28 01:07:43;0.00;0.00;0.62;0.00;0.00;0.62;3.40;2.03;;;28.40;29.20;;;;;;2248493;61;20460;-61
2023/07/28 01:10:32;0.00;0.00;0.62;0.00;0.00;0.62;2.70;2.30;;;28.40;29.20;;;;;;2247436;61;20368;-61
2023/07/28 01:13:16;0.00;0.00;0.62;0.00;0.00;0.62;2.50;2.00;;;28.40;29.20;;;;;;2248392;61;20460;-58
2023/07/28 01:16:01;0.00;0.00;0.62;0.00;0.00;0.62;2.63;1.90;;;28.40;29.20;;;;;;2248350;61;20367;-60
2023/07/28 01:18:47;0.00;0.00;0.62;0.00;0.00;0.62;2.27;1.80;;;28.40;29.20;;;;;;2247855;61;20445;-59
2023/07/28 01:21:32;0.00;0.00;0.62;0.00;0.00;0.62;2.57;2.07;;;28.40;29.20;;;;;;2248975;61;20367;-60
2023/07/28 01:24:27;0.00;0.00;0.62;0.00;0.00;0.62;2.50;1.83;;;28.40;29.80;;;;;;2252096;61;20422;-58
2023/07/28 01:27:13;0.00;0.00;0.62;0.00;0.00;0.62;2.50;1.57;;;28.40;29.20;;;;;;2251980;61;20784;-63
2023/07/28 01:29:58;0.00;0.00;0.62;0.00;0.00;0.62;2.23;1.63;;;28.40;29.20;;;;;;2251300;61;20366;-59
2023/07/28 01:32:43;0.00;0.00;0.62;0.00;0.00;0.62;1.93;1.57;;;28.40;29.80;;;;;;2248324;61;20367;-60
2023/07/28 01:35:28;0.00;0.00;0.62;0.00;0.00;0.62;2.63;2.20;;;28.40;29.20;;;;;;2251720;61;20366;-58
2023/07/28 01:38:12;0.00;0.00;0.62;0.00;0.00;0.62;2.30;1.60;;;28.40;29.20;;;;;;2251903;61;20418;-62
2023/07/28 01:40:58;0.00;0.00;0.62;0.00;0.00;0.62;1.97;1.40;;;28.40;29.30;;;;;;2248627;61;20909;-61
2023/07/28 01:43:44;0.00;0.00;0.62;0.00;0.00;0.62;2.50;1.90;;;28.40;29.20;;;;;;2251557;61;20363;-61
2023/07/28 01:46:28;0.00;0.00;0.62;0.00;0.00;0.62;2.27;1.93;;;28.40;29.80;;;;;;2251667;61;20370;-60
2023/07/28 01:49:14;0.00;0.00;0.62;0.00;0.00;0.62;2.10;1.40;;;28.40;29.30;;;;;;2251580;61;20449;-62
2023/07/28 01:51:58;0.00;0.00;0.62;0.00;0.00;0.62;2.00;1.60;;;28.40;29.30;;;;;;2251683;61;20503;-66
2023/07/28 01:54:43;0.00;0.00;0.62;0.00;0.00;0.62;2.13;1.60;;;28.40;29.30;;;;;;2251622;61;20848;-61
2023/07/28 01:57:30;0.00;0.00;0.62;0.00;0.00;0.62;2.00;1.40;;;28.40;29.30;;;;;;2248889;61;20387;-60
2023/07/28 02:00:17;0.00;0.00;0.62;0.00;0.00;0.62;2.00;1.50;;;28.40;29.30;;;;;;2251318;61;20390;-58
2023/07/28 02:03:05;0.00;0.00;0.62;0.00;0.00;0.62;2.33;1.93;;;28.40;29.30;;;;;;2251852;61;20433;-61
2023/07/28 02:05:49;0.00;0.00;0.62;0.00;0.00;0.62;2.57;1.97;;;28.40;29.30;;;;;;2251810;61;20405;-62
2023/07/28 02:11:37;0.00;0.00;0.62;0.00;0.00;0.62;1.93;1.40;;;28.40;29.30;;;;;;2257672;61;20397;-61
2023/07/28 02:14:22;0.00;0.00;0.62;0.00;0.00;0.62;1.60;1.10;;;28.40;29.90;;;;;;2255592;61;20373;-61
2023/07/28 02:17:08;0.00;0.00;0.62;0.00;0.00;0.62;2.10;1.40;;;28.40;29.30;;;;;;2255595;61;20470;-61
2023/07/28 02:19:53;0.00;0.00;0.62;0.00;0.00;0.62;1.70;1.20;;;28.40;29.30;;;;;;2248333;61;20618;-61
2023/07/28 02:22:37;0.00;0.00;0.62;0.00;0.00;0.62;2.60;1.50;;;28.40;29.30;;;;;;2249087;61;20773;-61
2023/07/28 02:25:22;0.00;0.00;0.62;0.00;0.00;0.62;2.00;1.57;;;28.40;29.30;;;;;;2251413;61;20367;-57
2023/07/28 02:28:09;0.00;0.00;0.62;0.00;0.00;0.62;2.10;1.37;;;28.40;29.40;;;;;;2248789;61;20445;-61
2023/07/28 02:30:54;0.00;0.00;0.62;0.00;0.00;0.62;1.80;1.40;;;28.40;29.40;;;;;;2252162;61;20810;-60
2023/07/28 02:33:40;0.00;0.00;0.62;0.00;0.00;0.62;3.00;1.30;;;28.40;29.30;;;;;;2251622;61;20398;-60
2023/07/28 02:36:24;0.00;0.00;0.62;0.00;0.00;0.62;1.80;1.27;;;28.40;29.30;;;;;;2251513;61;20413;-58
2023/07/28 02:39:09;0.00;0.00;0.62;0.00;0.00;0.62;2.53;1.40;;;28.40;29.40;;;;;;2251086;61;20413;-61
2023/07/28 02:41:54;0.00;0.00;0.62;0.00;0.00;0.62;2.03;1.47;;;28.40;29.40;;;;;;2251966;61;20584;-61
2023/07/28 02:44:39;0.00;0.00;0.62;0.00;0.00;0.62;2.23;1.30;;;28.40;29.40;;;;;;2251928;61;20966;-61
2023/07/28 02:47:23;0.00;0.00;0.62;0.00;0.00;0.62;2.10;1.57;;;28.40;29.40;;;;;;2251506;61;20362;-57
2023/07/28 02:50:10;0.00;0.00;0.62;0.00;0.00;0.62;2.53;1.07;;;28.40;29.40;;;;;;2251575;61;20931;-59
2023/07/28 02:52:55;0.00;0.00;0.62;0.00;0.00;0.62;1.77;1.33;;;28.40;29.40;;;;;;2249035;61;20374;-61
2023/07/28 02:55:42;0.00;0.00;0.62;0.00;0.00;0.62;2.00;1.40;;;28.40;29.40;;;;;;2251618;61;20903;-61
2023/07/28 02:58:27;0.00;0.00;0.62;0.00;0.00;0.62;2.10;1.40;;;28.40;29.40;;;;;;2251441;61;20802;-60
2023/07/28 03:01:12;0.00;0.00;0.62;0.00;0.00;0.62;2.03;1.20;;;28.40;29.40;;;;;;2251620;61;20421;-60
2023/07/28 03:03:56;0.00;0.00;0.62;0.00;0.00;0.62;2.00;1.20;;;28.40;29.40;;;;;;2248533;61;20414;-59
2023/07/28 03:06:42;0.00;0.00;0.62;0.00;0.00;0.62;1.83;1.20;;;28.40;29.40;;;;;;2251940;61;20542;-61
2023/07/28 03:09:28;0.00;0.00;0.62;0.00;0.00;0.62;1.63;1.30;;;28.40;29.40;;;;;;2250505;61;20386;-57
2023/07/28 03:12:19;0.00;0.00;0.62;0.00;0.00;0.62;2.13;1.23;;;28.40;29.40;;;;;;2251612;61;20422;-57
2023/07/28 03:15:05;0.00;0.00;0.62;0.00;0.00;0.62;1.73;1.30;;;28.30;29.40;;;;;;2251566;61;20864;-61
2023/07/28 03:17:50;0.00;0.00;0.62;0.00;0.00;0.62;1.50;1.00;;;28.40;29.50;;;;;;2251067;61;20482;-61
2023/07/28 03:20:35;0.00;0.00;0.62;0.00;0.00;0.62;1.70;1.30;;;28.30;29.90;;;;;;2251257;61;20509;-60
2023/07/28 03:23:22;0.00;0.00;0.62;0.00;0.00;0.62;1.63;0.97;;;28.30;29.40;;;;;;2251611;61;20415;-60
2023/07/28 03:26:06;0.00;0.00;0.62;0.00;0.00;0.62;2.47;1.30;;;28.30;29.40;;;;;;2254192;61;20366;-59
2023/07/28 03:28:51;0.00;0.00;0.62;0.00;0.00;0.62;1.63;1.27;;;28.40;29.50;;;;;;2251488;61;20466;-61
2023/07/28 03:31:35;0.00;0.00;0.62;0.00;0.00;0.62;1.77;1.27;;;28.30;29.50;;;;;;2250798;61;20417;-59
2023/07/28 03:34:21;0.00;0.00;0.62;0.00;0.00;0.62;1.70;1.00;;;28.40;29.50;;;;;;2251593;61;20756;-59
2023/07/28 03:37:07;0.00;0.00;0.62;0.00;0.00;0.62;1.60;1.13;;;28.30;29.50;;;;;;2251355;61;20367;-59
2023/07/28 03:39:56;0.00;0.00;0.62;0.00;0.00;0.62;1.70;1.20;;;28.30;29.50;;;;;;2250486;61;20938;-60
2023/07/28 03:42:47;0.00;0.00;0.62;0.00;0.00;0.62;1.80;1.23;;;28.40;29.50;;;;;;2251394;61;20429;-60
2023/07/28 03:45:31;0.00;0.00;0.62;0.00;0.00;0.62;1.47;1.00;;;28.40;29.50;;;;;;2251671;61;20402;-59
2023/07/28 03:48:17;0.00;0.00;0.62;0.00;0.00;0.62;1.73;1.00;;;28.30;29.50;;;;;;2251639;61;20475;-60
2023/07/28 03:51:01;0.00;0.00;0.62;0.00;0.00;0.62;1.60;1.10;;;28.30;29.50;;;;;;2252504;61;20382;-60
2023/07/28 03:53:46;0.00;0.00;0.62;0.00;0.00;0.62;1.63;1.07;;;28.30;29.50;;;;;;2251564;61;20898;-60
2023/07/28 03:56:32;0.00;0.00;0.62;0.00;0.00;0.62;1.90;1.00;;;28.30;29.50;;;;;;2252556;61;20375;-60
2023/07/28 03:59:17;0.00;0.00;0.62;0.00;0.00;0.62;1.57;1.20;;;28.30;29.50;;;;;;2251341;61;20453;-57
2023/07/28 04:02:02;0.00;0.00;0.62;0.00;0.00;0.62;1.80;1.27;;;28.30;29.60;;;;;;2251833;61;20402;-59
2023/07/28 04:04:52;0.00;0.00;0.62;0.00;0.00;0.62;1.70;1.03;;;28.30;29.50;;;;;;2251431;61;20767;-59
2023/07/28 04:07:38;0.00;0.00;0.62;0.00;0.00;0.62;1.40;0.90;;;28.30;29.50;;;;;;2249109;61;20479;-59
2023/07/28 04:10:23;0.00;0.00;0.62;0.00;0.00;0.62;1.43;0.97;;;28.30;29.60;;;;;;2248869;61;20454;-64
2023/07/28 04:13:10;0.00;0.00;0.62;0.00;0.00;0.62;1.47;0.90;;;28.30;29.60;;;;;;2251934;61;20532;-57
2023/07/28 04:15:54;0.00;0.00;0.62;0.00;0.00;0.62;1.80;1.00;;;28.30;30.00;;;;;;2251271;61;20433;-60
2023/07/28 04:18:39;0.00;0.00;0.62;0.00;0.00;0.62;1.50;0.90;;;28.30;29.60;;;;;;2251847;61;20402;-64
2023/07/28 04:21:24;0.00;0.00;0.62;0.00;0.00;0.62;1.67;1.37;;;28.30;29.60;;;;;;2249190;61;20362;-60
2023/07/28 04:24:09;0.00;0.00;0.62;0.00;0.00;0.62;1.50;1.00;;;28.30;29.60;;;;;;2251820;61;20367;-64
2023/07/28 04:26:58;0.00;0.00;0.62;0.00;0.00;0.62;1.30;0.80;;;28.30;29.60;;;;;;2249094;61;20966;-56
2023/07/28 04:29:45;0.00;0.00;0.62;0.00;0.00;0.62;1.47;1.03;;;28.30;29.60;;;;;;2248686;61;20405;-61
2023/07/28 04:32:31;0.00;0.00;0.62;0.00;0.00;0.62;1.60;1.10;;;28.30;29.60;;;;;;2251962;61;20367;-55
2023/07/28 04:35:22;0.00;0.00;0.62;0.00;0.00;0.62;1.40;0.90;;;28.30;29.60;;;;;;2249240;61;20887;-60
2023/07/28 04:38:18;0.00;0.00;0.62;0.00;0.00;0.62;1.60;1.07;;;28.30;29.60;;;;;;2251080;61;20524;-59
2023/07/28 04:41:07;0.00;0.00;0.62;0.00;0.00;0.62;1.60;1.03;;;28.30;29.60;;;;;;2249112;61;20949;-59
2023/07/28 04:44:11;0.00;0.00;0.62;0.00;0.00;0.62;1.80;1.00;;;28.30;29.60;;;;;;2251845;61;20441;-59
2023/07/28 04:47:00;0.00;0.00;0.62;0.00;0.00;0.62;1.70;1.20;;;28.30;30.10;;;;;;2251553;61;20770;-60
2023/07/28 04:49:45;0.00;0.00;0.62;0.00;0.00;0.62;1.53;0.93;;;28.30;29.60;;;;;;2248646;61;20694;-59
2023/07/28 04:52:50;0.00;0.00;0.62;0.00;0.00;0.62;1.60;1.10;;;28.30;29.60;;;;;;2251980;61;20627;-60
2023/07/28 04:55:58;0.00;0.00;0.62;0.00;0.00;0.62;1.60;1.10;;;28.30;29.60;;;;;;2251976;61;20383;-60
2023/07/28 04:58:42;0.00;0.00;0.62;0.00;0.00;0.62;1.67;1.10;;;28.30;29.60;;;;;;2251908;61;20390;-60
2023/07/28 05:01:27;0.00;0.00;0.62;0.00;0.00;0.62;1.50;0.90;;;28.30;29.60;;;;;;2248547;61;20938;-64
2023/07/28 05:04:14;0.00;0.00;0.62;0.00;0.00;0.62;1.93;1.20;;;28.30;29.60;;;;;;2248205;61;20460;-59
2023/07/28 05:06:58;0.00;0.00;0.62;0.00;0.00;0.62;1.70;1.00;;;28.30;29.70;;;;;;2245142;61;20367;-59
2023/07/28 05:09:44;0.00;0.00;0.62;0.00;0.00;0.62;1.60;1.10;;;28.30;29.70;;;;;;2244900;61;20388;-60
2023/07/28 05:12:30;0.00;0.00;0.62;0.00;0.00;0.62;1.93;0.90;;;28.30;29.70;;;;;;2245284;61;20364;-57
2023/07/28 05:15:15;0.00;0.00;0.62;0.00;0.00;0.62;1.80;1.20;;;28.30;29.70;;;;;;2246312;61;20374;-59
2023/07/28 05:18:00;0.00;0.00;0.62;0.00;0.00;0.62;1.80;1.30;;;28.30;29.70;;;;;;2252247;61;20398;-61
2023/07/28 05:20:58;0.00;0.00;0.62;0.00;0.00;0.62;1.83;1.27;;;28.30;29.70;;;;;;2249147;61;20827;-61
2023/07/28 05:23:43;0.00;0.00;0.62;0.00;0.00;0.62;4.70;1.50;;;28.30;29.70;;;;;;2248648;61;20452;-60
2023/07/28 05:26:27;0.00;0.00;0.62;0.00;0.00;0.62;1.83;1.37;;;28.30;29.70;;;;;;2249099;61;20366;-60
2023/07/28 05:29:12;0.00;0.00;0.62;0.00;0.00;0.62;1.80;1.30;;;28.30;29.70;;;;;;2248199;61;20781;-60
2023/07/28 05:31:58;0.00;0.00;0.62;0.00;0.00;0.62;1.90;1.47;;;28.30;29.70;;;;;;2249065;61;20390;-58
2023/07/28 05:34:50;0.00;0.00;0.62;0.00;0.00;0.62;1.90;1.60;;;28.30;29.70;;;;;;2248963;61;20445;-59
2023/07/28 05:37:37;0.00;0.00;0.62;0.00;0.00;0.62;1.97;1.40;;;28.30;29.70;;;;;;2248684;61;20791;-58
2023/07/28 05:40:21;0.00;0.00;0.62;0.00;0.00;0.62;1.90;1.33;;;28.30;29.70;;;;;;2251983;61;20370;-60
2023/07/28 05:43:06;0.00;0.00;0.62;0.00;0.00;0.62;2.37;1.63;;;28.30;29.70;;;;;;2251982;61;20418;-61
2023/07/28 05:45:51;0.00;0.00;0.62;0.00;0.00;0.62;2.40;1.57;;;28.30;29.80;;;;;;2248612;61;20370;-60
2023/07/28 05:48:36;0.00;0.00;0.62;0.00;0.00;0.62;2.67;1.87;;;28.30;29.70;;;;;;2248703;61;20382;-60
2023/07/28 05:51:21;0.00;0.00;0.62;0.00;0.00;0.62;2.53;1.80;;;28.30;29.70;;;;;;2248833;61;20367;-59
2023/07/28 05:54:07;0.00;0.00;0.62;0.00;0.00;0.62;2.20;1.67;;;28.30;29.70;;;;;;2252064;61;20778;-60
2023/07/28 05:56:52;0.00;0.00;0.62;0.00;0.00;0.62;3.10;2.10;;;28.30;29.80;;;;;;2252402;61;20414;-59
2023/07/28 05:59:37;0.00;0.00;0.62;0.00;0.00;0.62;2.10;1.73;;;28.30;29.70;;;;;;2247917;61;20398;-59
2023/07/28 06:02:22;0.00;0.00;0.62;0.00;0.00;0.62;2.23;1.70;;;28.30;29.70;;;;;;2248419;61;20420;-59
2023/07/28 06:05:11;0.00;0.00;0.62;0.00;0.00;0.62;2.67;1.93;;;28.30;29.70;;;;;;2251474;61;20425;-60
2023/07/28 06:07:56;0.00;0.00;0.62;0.00;0.00;0.62;2.50;1.80;;;28.30;30.30;;;;;;2248003;61;20394;-59
2023/07/28 06:10:42;0.00;0.00;0.62;0.00;0.00;0.62;2.70;1.87;;;28.30;29.80;;;;;;2252083;61;20369;-60
2023/07/28 06:13:27;0.00;0.00;0.62;0.00;0.00;0.62;2.67;2.07;;;28.30;29.80;;;;;;2248593;61;20410;-62
2023/07/28 06:16:11;0.00;0.00;0.62;0.00;0.00;0.62;2.40;1.60;;;28.30;29.80;;;;;;2248914;61;20398;-58
2023/07/28 06:18:56;0.00;0.00;0.62;0.00;0.00;0.62;2.80;1.97;;;28.30;29.80;;;;;;2248445;61;20939;-56
2023/07/28 06:21:42;0.00;0.00;0.62;0.00;0.00;0.62;2.60;1.90;;;28.30;29.80;;;;;;2248499;61;20362;-59
2023/07/28 06:24:26;0.00;0.00;0.62;0.00;0.00;0.62;2.13;1.70;;;28.30;29.80;;;;;;2248868;61;20366;-58
2023/07/28 06:27:13;0.00;0.00;0.62;0.00;0.00;0.62;3.13;1.83;;;28.30;29.80;;;;;;2252193;61;20891;-59
2023/07/28 06:29:58;0.00;0.00;0.62;0.00;0.00;0.62;2.10;1.67;;;28.30;29.80;;;;;;2248143;61;20407;-58
2023/07/28 06:32:43;0.00;0.00;0.62;0.00;0.00;0.62;2.10;1.60;;;28.30;29.80;;;;;;2251722;61;20815;-59
2023/07/28 06:35:28;0.00;0.00;0.62;0.00;0.00;0.62;5.40;1.83;;;28.30;29.80;;;;;;2248415;61;20801;-58
2023/07/28 06:38:12;0.00;0.00;0.62;0.00;0.00;0.62;3.07;1.70;;;28.30;29.90;;;;;;2251919;61;20394;-56
2023/07/28 06:40:57;0.00;0.00;0.62;0.00;0.00;0.62;2.13;1.70;;;28.30;29.90;;;;;;2248803;61;20366;-59
2023/07/28 06:43:43;0.00;0.00;0.62;0.00;0.00;0.62;2.40;1.87;;;28.30;29.90;;;;;;2248281;61;20907;-58
2023/07/28 06:46:30;0.00;0.00;0.62;0.00;0.00;0.62;1.80;1.53;;;28.30;29.90;;;;;;2248794;61;20386;-58
2023/07/28 06:49:15;0.00;0.00;0.62;0.00;0.00;0.62;2.03;1.57;;;28.30;29.90;;;;;;2251684;61;20379;-62
2023/07/28 06:52:00;0.00;0.00;0.62;0.00;0.00;0.62;2.07;1.53;;;28.30;29.90;;;;;;2251573;61;20680;-59
2023/07/28 06:54:47;0.00;0.00;0.62;0.00;0.00;0.62;2.07;1.50;;;28.30;29.90;;;;;;2252171;61;20371;-59
2023/07/28 06:57:32;0.00;0.00;0.62;0.00;0.00;0.62;2.20;1.53;;;28.30;29.90;;;;;;2251638;61;20470;-60
2023/07/28 07:00:18;0.00;0.00;0.62;0.00;0.00;0.62;1.90;1.40;;;28.30;29.90;;;;;;2251601;61;20402;-59
2023/07/28 07:03:03;0.00;0.00;0.62;0.00;0.00;0.62;2.00;1.47;;;28.30;29.90;;;;;;2252081;61;20375;-61
2023/07/28 07:05:48;0.00;0.00;0.62;0.00;0.00;0.62;2.27;1.70;;;28.30;29.90;;;;;;2250732;61;20374;-59
2023/07/28 07:08:32;0.00;0.00;0.62;0.00;0.00;0.62;2.27;1.70;;;28.30;29.90;;;;;;2251203;61;20378;-61
2023/07/28 07:11:17;0.00;0.00;0.62;0.00;0.00;0.62;1.80;1.20;;;28.30;29.90;;;;;;2251960;61;20366;-60
2023/07/28 07:14:01;0.00;0.00;0.62;0.00;0.00;0.62;2.00;1.50;;;28.30;29.90;;;;;;2251583;61;20370;-57
2023/07/28 07:16:49;0.00;0.00;0.62;0.00;0.00;0.62;2.87;1.80;;;28.30;29.90;;;;;;2252053;61;20366;-58
2023/07/28 07:19:33;0.00;0.00;0.62;0.00;0.00;0.62;1.93;1.40;;;28.30;30.00;;;;;;2251686;61;20468;-58
2023/07/28 07:22:18;0.00;0.00;0.62;0.00;0.00;0.62;1.87;1.40;;;28.30;30.00;;;;;;2252620;61;20358;-58
2023/07/28 07:25:04;0.00;0.00;0.62;0.00;0.00;0.62;2.00;1.50;;;28.30;30.00;;;;;;2252441;61;20595;-58
2023/07/28 07:27:50;0.00;0.00;0.62;0.00;0.00;0.62;1.93;1.30;;;28.30;30.00;;;;;;2252226;61;20673;-58
2023/07/28 07:30:35;0.00;0.00;0.62;0.00;0.00;0.62;1.80;1.43;;;28.30;30.00;;;;;;2252232;61;20453;-61
2023/07/28 07:33:21;0.00;0.00;0.62;0.00;0.00;0.62;1.70;1.27;;;28.30;30.00;;;;;;2252881;61;20560;-56
2023/07/28 07:36:11;0.00;0.00;0.62;0.00;0.00;0.62;2.00;1.60;;;28.30;30.00;;;;;;2252282;61;20424;-53
2023/07/28 07:38:56;0.00;0.00;0.62;0.00;0.00;0.62;1.90;1.50;;;28.30;30.00;;;;;;2252183;61;20434;-57
2023/07/28 07:41:41;0.00;0.00;0.62;0.00;0.00;0.62;1.97;1.50;;;28.30;30.00;;;;;;2252598;61;20358;-59
2023/07/28 07:44:26;0.00;0.00;0.62;0.00;0.00;0.62;2.00;1.30;;;28.30;30.00;;;;;;2252526;61;20934;-58
2023/07/28 07:47:15;0.00;0.00;0.62;0.00;0.00;0.62;3.10;1.43;;;28.30;30.00;;;;;;2252394;61;20362;-57
2023/07/28 07:50:02;0.00;0.00;0.62;0.00;0.00;0.62;2.30;1.50;;;28.30;30.00;;;;;;2251913;61;21010;-58
2023/07/28 07:52:48;0.00;0.00;0.62;0.00;0.00;0.62;1.63;1.13;;;28.30;30.00;;;;;;2252645;61;20410;-59
2023/07/28 07:55:32;0.00;0.00;0.62;0.00;0.00;0.62;1.60;1.00;;;28.30;30.70;;;;;;2252641;61;20374;-59
2023/07/28 07:58:17;0.00;0.00;0.62;0.00;0.00;0.62;1.83;1.30;;;28.30;30.00;;;;;;2251529;61;20942;-57
2023/07/28 08:01:03;0.00;0.00;0.62;0.00;0.00;0.62;1.90;1.13;;;28.30;30.00;;;;;;2252613;61;20455;-56
2023/07/28 08:03:47;0.00;0.00;0.62;0.00;0.00;0.62;1.60;1.03;;;28.30;30.00;;;;;;2252624;61;20358;-59
2023/07/28 08:06:34;0.00;0.00;0.62;0.00;0.00;0.62;1.80;1.10;;;28.30;30.10;;;;;;2252460;61;20363;-58
2023/07/28 08:09:18;0.00;0.00;0.62;0.00;0.00;0.62;2.27;1.67;;;28.30;30.10;;;;;;2252025;61;20399;-59
2023/07/28 08:12:04;0.00;0.00;0.62;0.00;0.00;0.62;2.10;1.30;;;28.30;30.80;;;;;;2252295;61;20962;-61
2023/07/28 08:14:49;0.00;0.00;0.62;0.00;0.00;0.62;1.70;1.33;;;28.30;30.10;;;;;;2249251;61;20374;-59
2023/07/28 08:17:33;0.00;0.00;0.62;0.00;0.00;0.62;1.70;1.20;;;28.30;30.10;;;;;;2252449;61;20394;-59
2023/07/28 08:20:18;0.00;0.00;0.62;0.00;0.00;0.62;2.40;1.13;;;28.30;30.40;;;;;;2251471;61;20791;-59
2023/07/28 08:23:04;0.00;0.00;0.62;0.00;0.00;0.62;3.00;1.13;;;28.40;30.30;;;;;;2252632;61;20362;-59
2023/07/28 08:25:48;0.00;0.00;0.62;0.00;0.00;0.62;2.00;1.20;;;28.40;30.30;;;;;;2252159;61;20363;-60
2023/07/28 08:28:33;0.00;0.00;0.62;0.00;0.00;0.62;1.70;1.37;;;28.40;30.40;;;;;;2251631;61;21485;-60
2023/07/28 08:31:18;0.00;0.00;0.62;0.00;0.00;0.62;1.93;1.37;;;28.40;30.40;;;;;;2252189;61;20370;-58
2023/07/28 08:34:02;0.00;0.00;0.62;0.00;0.00;0.62;2.67;1.60;;;28.40;30.50;;;;;;2252188;61;20377;-61
2023/07/28 08:36:47;0.00;0.00;0.62;0.00;0.00;0.62;2.30;1.70;;;28.40;31.30;;;;;;2252223;61;20902;-62
2023/07/28 08:39:33;0.00;0.00;0.62;0.00;0.00;0.62;2.07;1.47;;;28.40;30.60;;;;;;2251950;61;20394;-59
2023/07/28 08:42:20;0.00;0.00;0.62;0.00;0.00;0.62;1.70;1.30;;;28.40;30.60;;;;;;2251939;61;20367;-59
2023/07/28 08:45:10;0.00;0.00;0.62;0.00;0.00;0.62;1.80;1.40;;;28.40;30.60;;;;;;2252612;61;20398;-60
2023/07/28 08:47:55;0.00;0.00;0.62;0.00;0.00;0.62;1.63;1.20;;;28.40;30.70;;;;;;2252625;61;20390;-59
2023/07/28 08:50:40;0.00;0.00;0.62;0.00;0.00;0.62;2.10;1.67;;;28.40;31.40;;;;;;2251902;61;20370;-62
2023/07/28 08:53:25;0.00;0.00;0.62;0.00;0.00;0.62;2.43;1.47;;;28.40;30.70;;;;;;2252531;61;20422;-59
2023/07/28 08:56:11;0.00;0.00;0.62;0.00;0.00;0.62;1.67;1.30;;;28.40;31.50;;;;;;2251912;61;20362;-60
2023/07/28 08:58:59;0.00;0.00;0.62;0.00;0.00;0.62;1.80;1.50;;;28.40;30.80;;;;;;2252013;61;20391;-61
2023/07/28 09:01:46;0.00;0.00;0.62;0.00;0.00;0.62;1.83;1.47;;;28.40;30.90;;;;;;2249519;61;20358;-59
2023/07/28 09:04:31;0.00;0.00;0.62;0.00;0.00;0.62;1.97;1.30;;;28.40;30.90;;;;;;2250666;61;20628;-59
2023/07/28 09:07:15;0.00;0.00;0.62;0.00;0.00;0.62;1.70;1.20;;;28.40;30.90;;;;;;2248344;61;20367;-60
2023/07/28 09:10:00;0.00;0.00;0.62;0.00;0.00;0.62;1.70;1.30;;;28.40;31.00;;;;;;2247755;61;20956;-65
2023/07/28 09:12:50;0.00;0.00;0.62;0.00;0.00;0.62;1.63;1.37;;;28.50;31.20;;;;;;2248074;61;20371;-57
2023/07/28 09:15:35;0.00;0.00;0.62;0.00;0.00;0.62;1.70;1.20;;;28.40;31.10;;;;;;2248140;61;20391;-57
2023/07/28 09:18:27;0.00;0.00;0.62;0.00;0.00;0.62;1.40;1.03;;;28.40;31.10;;;;;;2247774;61;20399;-60
2023/07/28 09:21:18;0.00;0.00;0.62;0.00;0.00;0.62;1.87;1.60;;;28.40;31.20;;;;;;2248306;61;20372;-59
2023/07/28 09:24:08;0.00;0.00;0.62;0.00;0.00;0.62;1.63;1.23;;;28.50;31.30;;;;;;2248087;61;20367;-59
2023/07/28 09:26:54;0.00;0.00;0.62;0.00;0.00;0.62;1.90;1.30;;;28.50;31.30;;;;;;2247849;61;20439;-55
2023/07/28 09:29:41;0.00;0.00;0.62;0.00;0.00;0.62;1.90;1.40;;;28.50;31.30;;;;;;2247770;61;20364;-58
2023/07/28 09:32:32;0.00;0.00;0.62;0.00;0.00;0.62;1.60;1.30;;;28.50;31.30;;;;;;2248146;61;20403;-60
2023/07/28 09:35:18;0.00;0.00;0.62;0.00;0.00;0.62;1.60;1.30;;;28.50;31.40;;;;;;2247985;61;20435;-59
2023/07/28 09:38:04;0.00;0.00;0.62;0.00;0.00;0.62;2.33;1.20;;;28.50;31.40;;;;;;2252303;61;20378;-61
2023/07/28 09:40:49;0.00;0.00;0.62;0.00;0.00;0.62;2.30;1.30;;;28.50;31.40;;;;;;2251272;61;20366;-67
2023/07/28 09:43:34;0.00;0.00;0.62;0.00;0.00;0.62;2.00;1.40;;;28.50;31.40;;;;;;2252090;61;20405;-60
2023/07/28 09:46:22;0.00;0.00;0.62;0.00;0.00;0.62;2.47;1.30;;;28.50;31.40;;;;;;2252166;61;20671;-59
2023/07/28 09:49:14;0.00;0.00;0.62;0.00;0.00;0.62;1.53;1.13;;;28.50;31.50;;;;;;2250982;61;20395;-60
2023/07/28 09:52:08;0.00;0.00;0.62;0.00;0.00;0.62;1.90;1.30;;;28.50;31.50;;;;;;2252321;61;20883;-60
2023/07/28 09:54:56;0.00;0.00;0.62;0.00;0.00;0.62;1.80;1.23;;;28.50;31.50;;;;;;2252253;61;20371;-60
2023/07/28 09:57:49;0.00;0.00;0.62;0.00;0.00;0.62;1.77;1.50;;;28.60;31.70;;;;;;2252057;61;20866;-60
2023/07/28 10:00:35;0.00;0.00;0.62;0.00;0.00;0.62;2.17;1.60;;;28.60;31.70;;;;;;2251752;61;20383;-59
2023/07/28 10:03:22;0.00;0.00;0.62;0.00;0.00;0.62;1.60;1.20;;;28.60;31.70;;;;;;2251924;61;20366;-58
2023/07/28 10:06:07;0.00;0.00;0.62;0.00;0.00;0.62;1.70;1.40;;;28.60;31.70;;;;;;2252049;61;20471;-60
2023/07/28 10:08:52;0.00;0.00;0.62;0.00;0.00;0.62;2.13;1.30;;;28.60;31.70;;;;;;2248575;61;20780;-61
2023/07/28 10:11:37;0.00;0.00;0.62;0.00;0.00;0.62;1.77;1.40;;;28.60;31.70;;;;;;2251709;61;20379;-64
2023/07/28 10:14:31;0.00;0.00;0.62;0.00;0.00;0.62;1.80;1.40;;;28.60;31.60;;;;;;2249041;61;20933;-58
2023/07/28 10:17:19;0.00;0.00;0.62;0.00;0.00;0.62;1.60;1.40;;;28.60;31.80;;;;;;2481884;53;20360;-59
2023/07/28 10:20:27;0.00;0.00;0.62;0.00;0.00;0.62;1.70;1.37;;;28.60;31.70;;;;;;2244223;61;20391;-62
2023/07/28 10:23:14;0.00;0.00;0.62;0.00;0.00;0.62;1.60;1.23;;;28.60;31.80;;;;;;2248309;61;20869;-60
2023/07/28 10:26:07;0.00;0.00;0.62;0.00;0.00;0.62;2.10;1.30;;;28.70;31.80;;;;;;2247511;61;20371;-60
2023/07/28 10:28:52;0.00;0.00;0.62;0.00;0.00;0.62;1.70;1.30;;;28.70;31.80;;;;;;2247740;61;20434;-60
2023/07/28 10:31:37;0.00;0.00;0.62;0.00;0.00;0.62;1.63;1.20;;;28.70;31.80;;;;;;2248429;61;20780;-58
2023/07/28 10:34:23;0.00;0.00;0.62;0.00;0.00;0.62;1.50;1.13;;;28.70;31.80;;;;;;2247682;61;20367;-60
2023/07/28 10:37:09;0.00;0.00;0.62;0.00;0.00;0.62;1.63;1.30;;;28.70;31.80;;;;;;2248224;61;20931;-60
2023/07/28 10:40:27;0.00;0.00;0.62;0.00;0.00;0.62;1.50;1.20;;;28.70;31.80;;;;;;2247345;61;20395;-60
2023/07/28 10:43:12;0.00;0.00;0.62;0.00;0.00;0.62;1.73;1.33;;;28.70;31.80;;;;;;2248196;61;20360;-60
2023/07/28 10:45:59;0.00;0.00;0.62;0.00;0.00;0.62;1.63;1.23;;;28.70;31.80;;;;;;2247913;61;20908;-60
2023/07/28 10:48:45;0.00;0.00;0.62;0.00;0.00;0.62;1.70;1.40;;;28.70;31.80;;;;;;2243990;61;20375;-60
2023/07/28 10:51:33;0.00;0.00;0.62;0.00;0.00;0.62;1.93;1.70;;;28.80;31.90;;;;;;2247602;61;20410;-60
2023/07/28 10:54:20;0.00;0.00;0.62;0.00;0.00;0.62;1.50;1.30;;;28.80;31.90;;;;;;2247771;61;20392;-59
2023/07/28 10:57:05;0.00;0.00;0.62;0.00;0.00;0.62;1.50;1.20;;;28.80;32.60;;;;;;2248219;61;20411;-59
2023/07/28 10:59:51;0.00;0.00;0.62;0.00;0.00;0.62;1.53;1.27;;;28.80;31.90;;;;;;2247538;61;20400;-60